Time;durP1;ratioP1;P1;durP2;ratioP2;P2;SDS_P1;SDS_P2;PMS_P1;PMS_P2;Temp;Humidity;BMP_temperature;BMP_pressure;BME280_temperature;BME280_humidity;BME280_pressure;Samples;Min_cycle;Max_cycle;Signal;HPM_P1;HPM_P2
2023/02/16 00:01:51;;;;;;;22.08;10.98;;;5.00;57.40;;;;;;5075087;28;19912;-73
2023/02/16 00:04:25;;;;;;;17.98;9.65;;;4.90;57.70;;;;;;5074840;28;20158;-74
2023/02/16 00:06:52;;;;;;;16.85;10.27;;;4.90;57.90;;;;;;5075125;28;20032;-74
2023/02/16 00:09:19;;;;;;;18.52;10.00;;;4.80;57.90;;;;;;5074981;28;20025;-74
2023/02/16 00:14:32;;;;;;;18.13;10.13;;;4.90;58.40;;;;;;5074965;28;20119;-74
2023/02/16 00:16:58;;;;;;;20.55;9.75;;;4.90;58.20;;;;;;5074818;28;20032;-74
2023/02/16 00:19:32;;;;;;;15.73;9.35;;;4.90;57.90;;;;;;5074708;28;20035;-73
2023/02/16 00:21:59;;;;;;;15.82;9.57;;;4.80;58.40;;;;;;5074893;28;20107;-73
2023/02/16 00:24:27;;;;;;;18.88;10.27;;;4.60;59.00;;;;;;5074788;28;20020;-73
2023/02/16 00:26:53;;;;;;;17.15;9.77;;;4.60;59.10;;;;;;5074512;28;20043;-73
2023/02/16 00:29:25;;;;;;;16.15;8.95;;;4.70;59.30;;;;;;5074634;28;20126;-73
2023/02/16 00:31:52;;;;;;;17.27;10.45;;;4.60;59.00;;;;;;5074623;28;20377;-74
2023/02/16 00:34:25;;;;;;;20.25;10.30;;;4.60;58.90;;;;;;5073188;28;20330;-73
2023/02/16 00:36:50;;;;;;;17.02;9.68;;;4.40;59.50;;;;;;5074444;28;20047;-74
2023/02/16 00:39:16;;;;;;;19.17;10.25;;;4.40;59.80;;;;;;5074304;28;20474;-73
2023/02/16 00:41:51;;;;;;;15.80;9.00;;;4.40;60.00;;;;;;5073758;28;20029;-73
2023/02/16 00:44:31;;;;;;;18.77;10.20;;;4.40;60.10;;;;;;5074179;28;20095;-72
2023/02/16 00:47:19;;;;;;;22.15;10.68;;;4.30;60.10;;;;;;5074485;28;20149;-73
2023/02/16 00:49:50;;;;;;;20.60;10.82;;;4.30;60.20;;;;;;5074076;28;20115;-73
2023/02/16 00:52:30;;;;;;;21.42;10.85;;;4.30;60.20;;;;;;5074139;28;20025;-73
2023/02/16 00:54:56;;;;;;;18.30;10.65;;;4.20;60.20;;;;;;5074119;28;20032;-73
2023/02/16 00:57:23;;;;;;;20.70;11.70;;;4.20;60.60;;;;;;5073966;28;20107;-73
2023/02/16 00:59:56;;;;;;;23.02;11.50;;;4.20;60.50;;;;;;5073845;28;20032;-72
2023/02/16 01:02:22;;;;;;;19.13;10.90;;;4.20;60.30;;;;;;5073908;28;20048;-72
2023/02/16 01:04:47;;;;;;;19.13;10.85;;;4.20;60.20;;;;;;5073456;28;20110;-73
2023/02/16 01:12:43;;;;;;;18.52;9.52;;;4.10;60.60;;;;;;5073784;28;20035;-72
2023/02/16 01:15:13;;;;;;;19.02;9.60;;;4.10;60.70;;;;;;5073481;28;20029;-73
2023/02/16 01:17:39;;;;;;;17.67;9.88;;;4.00;60.60;;;;;;5073615;28;20024;-73
2023/02/16 01:20:17;;;;;;;18.02;8.77;;;4.00;60.70;;;;;;5073369;28;20419;-74
2023/02/16 01:22:42;;;;;;;17.98;8.63;;;4.10;60.50;;;;;;5073427;28;20035;-73
2023/02/16 01:25:08;;;;;;;16.90;8.93;;;4.00;60.40;;;;;;5073399;28;20380;-73
2023/02/16 01:27:37;;;;;;;15.30;8.35;;;4.00;60.40;;;;;;5073385;28;20028;-73
2023/02/16 01:30:04;;;;;;;14.23;8.50;;;4.10;60.50;;;;;;5071906;28;20074;-72
2023/02/16 01:32:30;;;;;;;15.20;8.45;;;4.10;60.30;;;;;;5073235;28;20115;-73
2023/02/16 01:34:55;;;;;;;17.73;8.10;;;4.10;60.30;;;;;;5073329;28;20158;-73
2023/02/16 01:37:22;;;;;;;14.43;8.27;;;4.10;60.40;;;;;;5073315;28;20023;-73
2023/02/16 01:39:48;;;;;;;15.05;8.02;;;4.10;60.40;;;;;;5073175;28;20024;-73
2023/02/16 01:42:42;;;;;;;13.85;7.60;;;4.00;60.50;;;;;;5073124;28;20023;-73
2023/02/16 01:45:12;;;;;;;15.05;7.93;;;4.00;60.70;;;;;;5073195;28;20107;-73
2023/02/16 01:47:52;;;;;;;14.95;7.70;;;4.00;60.40;;;;;;5073013;28;20016;-73
2023/02/16 01:50:21;;;;;;;14.80;7.95;;;4.10;60.10;;;;;;5073199;28;20052;-73
2023/02/16 01:52:57;;;;;;;12.20;6.97;;;4.10;60.20;;;;;;5072418;28;20017;-73
2023/02/16 01:55:31;;;;;;;13.63;6.95;;;4.10;60.10;;;;;;5072941;28;20473;-73
2023/02/16 01:58:13;;;;;;;15.02;6.82;;;4.10;60.10;;;;;;5071948;28;20055;-72
2023/02/16 02:00:48;;;;;;;15.00;8.05;;;4.20;59.90;;;;;;5072840;28;20029;-73
2023/02/16 02:06:03;;;;;;;12.93;7.43;;;4.30;59.80;;;;;;5087415;28;20050;-73
2023/02/16 02:08:46;;;;;;;14.50;7.18;;;4.30;59.80;;;;;;5092991;28;20051;-73
2023/02/16 02:11:31;;;;;;;13.65;6.97;;;4.20;59.80;;;;;;5093006;28;20472;-73
2023/02/16 02:14:04;;;;;;;11.07;6.40;;;4.20;60.00;;;;;;5092993;28;20016;-73
2023/02/16 02:16:30;;;;;;;15.10;6.90;;;4.20;60.20;;;;;;5092852;28;20063;-73
2023/02/16 02:18:55;;;;;;;10.77;6.80;;;4.20;60.20;;;;;;5092824;28;20598;-72
2023/02/16 02:25:27;;;;;;;13.48;6.55;;;4.20;60.50;;;;;;5092975;28;20031;-72
2023/02/16 02:28:13;;;;;;;12.15;7.00;;;4.20;60.30;;;;;;5092878;28;20024;-73
2023/02/16 02:30:48;;;;;;;14.93;6.85;;;4.10;60.50;;;;;;5092735;28;20039;-73
2023/02/16 02:34:03;;;;;;;10.70;6.50;;;4.20;60.50;;;;;;5074772;28;20118;-73
2023/02/16 02:36:45;;;;;;;13.35;6.90;;;4.20;60.70;;;;;;5092853;28;20490;-73
2023/02/16 02:39:19;;;;;;;12.18;6.95;;;4.20;60.80;;;;;;5092685;28;20430;-73
2023/02/16 02:42:04;;;;;;;16.60;7.80;;;4.20;60.80;;;;;;5092756;28;20030;-73
2023/02/16 02:44:44;;;;;;;12.47;7.27;;;4.20;60.90;;;;;;5092643;28;20084;-73
2023/02/16 02:47:10;;;;;;;11.52;6.72;;;4.20;60.90;;;;;;5092739;28;20300;-73
2023/02/16 02:49:35;;;;;;;14.73;7.22;;;4.20;61.00;;;;;;5092662;28;20056;-73
2023/02/16 02:52:01;;;;;;;15.15;7.25;;;4.10;61.10;;;;;;5092716;28;20381;-74
2023/02/16 03:03:26;;;;;;;12.75;7.15;;;4.00;62.20;;;;;;5092643;28;20066;-73
2023/02/16 03:06:14;;;;;;;15.63;7.65;;;4.00;62.40;;;;;;5095389;28;20079;-73
2023/02/16 03:08:44;;;;;;;13.57;7.50;;;4.00;62.40;;;;;;5096481;28;20411;-73
2023/02/16 03:14:29;;;;;;;11.65;6.13;;;4.10;62.20;;;;;;5096357;28;20107;-74
2023/02/16 03:30:51;;;;;;;17.33;8.10;;;3.90;63.20;;;;;;5096058;28;20054;-73
2023/02/16 03:33:17;;;;;;;12.77;7.40;;;3.90;63.20;;;;;;5095815;28;20020;-73
2023/02/16 03:35:44;;;;;;;13.45;8.32;;;4.00;63.20;;;;;;5095802;28;20036;-73
2023/02/16 03:38:09;;;;;;;15.50;8.02;;;3.90;63.20;;;;;;5095778;28;20510;-73
2023/02/16 03:40:39;;;;;;;18.13;8.13;;;3.90;63.70;;;;;;5095579;28;20040;-73
2023/02/16 03:43:06;;;;;;;13.70;7.93;;;3.80;64.10;;;;;;5095761;28;20094;-73
2023/02/16 03:45:34;;;;;;;16.58;8.30;;;3.80;64.20;;;;;;5095549;28;20028;-73
2023/02/16 03:48:00;;;;;;;15.32;7.93;;;3.70;64.40;;;;;;5095441;28;20024;-73
2023/02/16 03:50:26;;;;;;;16.70;9.05;;;3.70;64.60;;;;;;5095496;28;20028;-74
2023/02/16 03:53:05;;;;;;;18.00;8.55;;;3.70;64.70;;;;;;5095422;28;20027;-73
2023/02/16 03:55:44;;;;;;;14.82;8.68;;;3.70;64.60;;;;;;5077165;28;20028;-73
2023/02/16 03:58:12;;;;;;;17.85;9.65;;;3.70;64.60;;;;;;5095279;28;20028;-79
2023/02/16 04:00:39;;;;;;;21.33;9.18;;;3.70;64.60;;;;;;5095188;28;20032;-73
2023/02/16 04:03:05;;;;;;;14.75;8.05;;;3.60;64.60;;;;;;5095002;28;20020;-73
2023/02/16 04:05:31;;;;;;;15.07;8.45;;;3.60;64.70;;;;;;5094790;28;20512;-73
2023/02/16 04:07:57;;;;;;;16.02;9.10;;;3.60;65.10;;;;;;5095186;28;20095;-73
2023/02/16 04:10:23;;;;;;;14.70;8.75;;;3.70;65.10;;;;;;5094983;28;20062;-73
2023/02/16 04:12:48;;;;;;;15.95;8.55;;;3.70;65.00;;;;;;5094977;28;20103;-73
2023/02/16 04:15:22;;;;;;;15.38;8.05;;;3.70;64.90;;;;;;5094899;28;20036;-73
2023/02/16 04:17:47;;;;;;;15.73;8.40;;;3.70;64.70;;;;;;5094133;28;20028;-73
2023/02/16 04:20:16;;;;;;;16.27;8.98;;;3.70;64.70;;;;;;5095154;28;20036;-73
2023/02/16 04:22:43;;;;;;;14.73;8.35;;;3.70;64.50;;;;;;5094890;28;20058;-73
2023/02/16 04:25:09;;;;;;;15.35;8.80;;;3.70;64.40;;;;;;5094660;28;20024;-73
2023/02/16 04:27:36;;;;;;;14.70;8.52;;;3.70;64.30;;;;;;5094296;28;20035;-73
2023/02/16 04:30:03;;;;;;;14.15;8.00;;;3.80;64.30;;;;;;5094448;28;20059;-72
2023/02/16 04:32:29;;;;;;;13.52;8.15;;;3.70;64.50;;;;;;5094561;28;20050;-73
2023/02/16 04:34:54;;;;;;;18.15;9.38;;;3.70;64.60;;;;;;5094581;28;20059;-73
2023/02/16 04:37:20;;;;;;;17.08;10.00;;;3.70;64.40;;;;;;5094424;28;20104;-73
2023/02/16 04:39:46;;;;;;;15.63;9.65;;;3.70;64.50;;;;;;5094353;28;20519;-73
2023/02/16 04:42:11;;;;;;;17.63;9.52;;;3.60;64.70;;;;;;5094209;28;20539;-73
2023/02/16 04:44:37;;;;;;;17.05;8.85;;;3.60;64.70;;;;;;5094113;28;20024;-74
2023/02/16 04:47:03;;;;;;;16.63;8.75;;;3.50;64.80;;;;;;5094159;28;20049;-73
2023/02/16 04:49:28;;;;;;;16.92;9.45;;;3.50;64.90;;;;;;5075983;28;20376;-73
2023/02/16 04:51:54;;;;;;;14.40;8.52;;;3.50;65.20;;;;;;5094167;28;20024;-73
2023/02/16 04:54:19;;;;;;;18.95;8.85;;;3.50;65.20;;;;;;5094089;28;20473;-73
2023/02/16 04:56:46;;;;;;;17.83;9.48;;;3.50;65.40;;;;;;5094156;28;20077;-74
2023/02/16 04:59:12;;;;;;;16.38;8.68;;;3.50;65.20;;;;;;5093855;28;20039;-72
2023/02/16 05:01:38;;;;;;;18.13;8.93;;;3.50;65.20;;;;;;5093903;28;20032;-72
2023/02/16 05:04:03;;;;;;;16.73;8.90;;;3.50;64.90;;;;;;5094012;28;20020;-72
2023/02/16 05:06:29;;;;;;;18.42;9.30;;;3.50;64.80;;;;;;5094155;28;20044;-72
2023/02/16 05:08:54;;;;;;;18.08;9.02;;;3.40;64.90;;;;;;5093891;28;20063;-72
2023/02/16 05:16:49;;;;;;;16.00;9.32;;;3.50;64.80;;;;;;5093939;28;20093;-72
2023/02/16 05:19:14;;;;;;;16.92;8.55;;;3.40;64.70;;;;;;5093721;28;20477;-72
2023/02/16 05:21:40;;;;;;;15.35;8.75;;;3.40;64.70;;;;;;5075465;28;20047;-72
2023/02/16 05:24:08;;;;;;;15.77;9.05;;;3.50;64.60;;;;;;5093618;28;20081;-72
2023/02/16 05:26:36;;;;;;;15.45;9.10;;;3.50;64.60;;;;;;5093555;28;20052;-72
2023/02/16 05:29:02;;;;;;;17.27;8.80;;;3.40;64.80;;;;;;5093462;28;20077;-73
2023/02/16 05:31:28;;;;;;;17.83;9.27;;;3.50;64.60;;;;;;5093557;28;20047;-74
2023/02/16 05:33:54;;;;;;;18.35;9.32;;;3.50;64.50;;;;;;5093569;28;20073;-72
2023/02/16 05:36:21;;;;;;;18.60;9.32;;;3.50;64.40;;;;;;5093343;28;20102;-73
2023/02/16 05:38:46;;;;;;;18.92;9.98;;;3.50;64.50;;;;;;5093419;28;20051;-73
2023/02/16 05:41:22;;;;;;;16.65;10.00;;;3.40;64.30;;;;;;5093392;28;20055;-73
2023/02/16 05:43:52;;;;;;;18.05;9.90;;;3.40;64.40;;;;;;5093294;28;20107;-72
2023/02/16 05:46:18;;;;;;;15.20;9.10;;;3.40;64.30;;;;;;5093200;28;20493;-73
2023/02/16 05:48:44;;;;;;;16.15;9.60;;;3.30;64.50;;;;;;5093107;28;20476;-73
2023/02/16 05:51:10;;;;;;;18.92;8.90;;;3.30;64.40;;;;;;5093225;28;20047;-73
2023/02/16 05:53:35;;;;;;;20.75;10.10;;;3.30;64.50;;;;;;5093121;28;20020;-72
2023/02/16 05:56:01;;;;;;;22.00;10.32;;;3.30;64.90;;;;;;5093132;28;20024;-73
2023/02/16 05:58:27;;;;;;;18.75;10.25;;;3.20;64.80;;;;;;5093078;28;20468;-73
2023/02/16 06:00:52;;;;;;;17.92;10.13;;;3.20;64.70;;;;;;5093018;28;20027;-73
2023/02/16 06:03:18;;;;;;;21.63;10.23;;;3.20;64.80;;;;;;5093121;28;20396;-72
2023/02/16 06:05:44;;;;;;;20.55;10.75;;;3.20;64.80;;;;;;5092604;28;20044;-72
2023/02/16 06:08:09;;;;;;;22.40;10.73;;;3.20;65.00;;;;;;5093101;28;20036;-73
2023/02/16 06:10:35;;;;;;;22.02;11.70;;;3.20;65.80;;;;;;5077583;28;20060;-73
2023/02/16 06:13:00;;;;;;;20.80;11.45;;;3.10;65.10;;;;;;5072439;28;20035;-72
2023/02/16 06:15:26;;;;;;;18.50;10.93;;;3.10;65.40;;;;;;5072221;28;20035;-72
2023/02/16 06:17:51;;;;;;;20.42;9.93;;;3.00;65.40;;;;;;5072427;28;20020;-73
2023/02/16 06:20:17;;;;;;;19.15;10.32;;;3.10;65.40;;;;;;5072384;28;20056;-73
2023/02/16 06:22:43;;;;;;;22.80;11.00;;;3.00;65.30;;;;;;5072407;28;20465;-73
2023/02/16 06:25:08;;;;;;;19.48;10.80;;;3.10;65.20;;;;;;5054293;28;20033;-73
2023/02/16 06:27:34;;;;;;;19.75;10.68;;;3.10;65.10;;;;;;5072220;28;20040;-74
2023/02/16 06:30:01;;;;;;;23.20;11.05;;;3.10;65.00;;;;;;5071805;28;20044;-74
2023/02/16 06:32:26;;;;;;;19.42;10.82;;;3.10;64.90;;;;;;5072876;28;20020;-73
2023/02/16 06:34:52;;;;;;;17.65;10.20;;;3.10;65.00;;;;;;5075388;28;20040;-73
2023/02/16 06:37:17;;;;;;;16.85;10.25;;;3.10;64.90;;;;;;5072251;28;20028;-74
2023/02/16 06:39:43;;;;;;;17.63;10.13;;;3.10;65.00;;;;;;5073516;28;20041;-73
2023/02/16 06:42:08;;;;;;;16.75;10.13;;;3.00;65.00;;;;;;5076283;28;20028;-75
2023/02/16 06:44:34;;;;;;;21.73;9.60;;;3.00;64.80;;;;;;5058290;28;20071;-73
2023/02/16 06:46:59;;;;;;;22.92;10.52;;;3.00;64.80;;;;;;5057896;28;20435;-75
2023/02/16 06:49:26;;;;;;;15.77;9.15;;;3.00;64.80;;;;;;5075624;28;20025;-74
2023/02/16 06:51:51;;;;;;;18.95;10.45;;;3.00;64.80;;;;;;5075119;28;20344;-74
2023/02/16 06:54:17;;;;;;;21.60;9.73;;;3.00;64.90;;;;;;5075858;28;20020;-73
2023/02/16 06:56:43;;;;;;;19.60;11.02;;;3.10;65.00;;;;;;5075710;28;20518;-75
2023/02/16 06:59:11;;;;;;;21.00;10.45;;;3.00;64.70;;;;;;5075806;28;20032;-74
2023/02/16 07:01:36;;;;;;;20.60;10.45;;;3.00;64.60;;;;;;5075998;28;20027;-75
2023/02/16 07:04:02;;;;;;;22.60;10.43;;;3.00;64.60;;;;;;5057832;28;20317;-77
2023/02/16 07:06:28;;;;;;;19.52;9.88;;;3.00;64.30;;;;;;5075649;28;20440;-78
2023/02/16 07:08:54;;;;;;;23.10;10.63;;;3.00;64.20;;;;;;5075805;28;20021;-77
2023/02/16 07:11:20;;;;;;;40.17;12.23;;;3.00;64.20;;;;;;5057610;28;20054;-75
2023/02/16 07:13:46;;;;;;;26.88;11.20;;;3.00;64.40;;;;;;5075745;28;20129;-75
2023/02/16 07:16:13;;;;;;;22.73;11.25;;;2.90;64.60;;;;;;5075680;28;20114;-76
2023/02/16 07:18:38;;;;;;;36.50;11.90;;;3.00;64.80;;;;;;5075844;28;20024;-75
2023/02/16 07:21:05;;;;;;;32.38;11.13;;;3.10;64.40;;;;;;5075323;28;20039;-75
2023/02/16 07:23:31;;;;;;;23.30;10.43;;;3.20;64.10;;;;;;5075385;28;20103;-73
2023/02/16 07:25:57;;;;;;;86.75;15.70;;;3.30;63.70;;;;;;5075330;28;20058;-73
2023/02/16 07:28:23;;;;;;;56.05;13.40;;;3.30;63.40;;;;;;5075217;28;20539;-73
2023/02/16 07:30:49;;;;;;;26.45;9.95;;;3.30;63.20;;;;;;5075202;28;20033;-73
2023/02/16 07:33:15;;;;;;;21.83;11.75;;;3.50;62.90;;;;;;5075228;28;20032;-72
2023/02/16 07:35:40;;;;;;;23.42;10.68;;;3.50;62.60;;;;;;5075232;28;20023;-72
2023/02/16 07:38:06;;;;;;;23.23;10.23;;;3.60;62.20;;;;;;5075383;28;20020;-74
2023/02/16 07:40:32;;;;;;;25.65;11.25;;;3.60;62.20;;;;;;5074966;28;20028;-74
2023/02/16 07:43:00;;;;;;;22.17;11.75;;;3.70;61.90;;;;;;5056969;28;20075;-72
2023/02/16 07:45:25;;;;;;;24.95;10.68;;;3.70;61.70;;;;;;5075062;28;20103;-73
2023/02/16 07:47:51;;;;;;;16.00;9.80;;;3.80;61.30;;;;;;5057393;28;20055;-73
2023/02/16 07:50:16;;;;;;;23.33;9.75;;;3.90;61.00;;;;;;5074521;28;20411;-73
2023/02/16 07:52:42;;;;;;;19.75;10.45;;;4.00;60.30;;;;;;5073952;28;20020;-73
2023/02/16 07:55:09;;;;;;;16.75;9.60;;;4.10;60.10;;;;;;5074918;28;20481;-73
2023/02/16 07:57:36;;;;;;;23.20;10.35;;;4.20;60.00;;;;;;5074974;28;20470;-73
2023/02/16 08:00:04;;;;;;;20.00;9.68;;;4.30;59.60;;;;;;5074778;28;20047;-73
2023/02/16 08:02:29;;;;;;;20.05;10.20;;;4.50;59.40;;;;;;5074677;28;20496;-73
2023/02/16 08:04:55;;;;;;;20.20;10.05;;;4.60;59.00;;;;;;5074467;28;20147;-73
2023/02/16 08:07:21;;;;;;;18.65;10.32;;;4.80;58.60;;;;;;5074578;28;20362;-75
2023/02/16 08:09:47;;;;;;;22.23;9.88;;;4.90;59.60;;;;;;5074502;28;20067;-74
2023/02/16 08:12:14;;;;;;;20.67;10.13;;;5.10;59.60;;;;;;5056338;28;20024;-75
2023/02/16 08:14:40;;;;;;;17.75;9.20;;;5.20;58.30;;;;;;5074403;28;20102;-76
2023/02/16 08:17:06;;;;;;;19.10;8.43;;;5.40;56.90;;;;;;5074563;28;20487;-74
2023/02/16 08:19:32;;;;;;;17.40;9.20;;;5.80;60.90;;;;;;5068095;28;20033;-74
2023/02/16 08:22:01;;;;;;;18.33;9.18;;;6.20;57.70;;;;;;5076246;28;20032;-74
2023/02/16 08:24:27;;;;;;;16.40;8.27;;;6.50;55.30;;;;;;5079795;28;20066;-73
2023/02/16 08:26:54;;;;;;;19.00;9.15;;;7.00;56.10;;;;;;5077884;28;20028;-73
2023/02/16 08:29:22;;;;;;;16.70;8.45;;;7.50;55.60;;;;;;5074144;28;20094;-76
2023/02/16 08:31:48;;;;;;;19.70;9.63;;;7.90;53.20;;;;;;5073963;28;20473;-75
2023/02/16 08:34:16;;;;;;;21.25;8.80;;;8.10;51.90;;;;;;5073853;28;20036;-74
2023/02/16 08:36:44;;;;;;;19.17;8.90;;;8.50;51.00;;;;;;5074876;28;20027;-74
2023/02/16 08:39:14;;;;;;;16.40;8.60;;;8.60;49.30;;;;;;5074088;28;20123;-73
2023/02/16 08:41:42;;;;;;;18.77;8.23;;;8.90;49.10;;;;;;5073901;28;20068;-73
2023/02/16 08:44:09;;;;;;;17.83;8.48;;;8.90;47.20;;;;;;5073681;28;20059;-74
2023/02/16 08:46:38;;;;;;;14.77;7.35;;;9.10;49.50;;;;;;5086597;28;20055;-74
2023/02/16 08:49:05;;;;;;;19.02;8.38;;;9.10;47.90;;;;;;5093611;28;20020;-75
2023/02/16 08:51:35;;;;;;;15.60;7.68;;;9.20;47.30;;;;;;5093971;28;20434;-73
2023/02/16 08:54:03;;;;;;;19.88;7.97;;;9.30;47.50;;;;;;5093960;28;20057;-74
2023/02/16 08:56:29;;;;;;;11.85;6.88;;;9.40;49.30;;;;;;5075768;28;20035;-73
2023/02/16 08:58:55;;;;;;;13.63;7.63;;;9.60;49.00;;;;;;5093819;28;20024;-74
2023/02/16 09:01:22;;;;;;;11.63;7.13;;;9.80;47.10;;;;;;5075295;28;20078;-73
2023/02/16 09:03:48;;;;;;;18.75;7.65;;;9.90;47.40;;;;;;5093398;28;20103;-74
2023/02/16 09:06:15;;;;;;;12.02;6.55;;;10.10;48.10;;;;;;5093694;28;20052;-73
2023/02/16 09:08:42;;;;;;;16.83;7.10;;;10.10;46.10;;;;;;5093500;28;20514;-74
2023/02/16 09:11:11;;;;;;;17.67;6.75;;;10.30;46.10;;;;;;5092938;28;20028;-73
2023/02/16 09:13:39;;;;;;;16.00;7.45;;;10.50;46.70;;;;;;5075527;28;20021;-73
2023/02/16 09:16:06;;;;;;;19.55;8.43;;;10.70;45.00;;;;;;5093265;28;20020;-74
2023/02/16 09:18:32;;;;;;;14.40;6.65;;;10.70;43.30;;;;;;5067633;28;20488;-75
2023/02/16 09:21:03;;;;;;;13.45;6.55;;;10.80;43.30;;;;;;5046567;28;20123;-74
2023/02/16 09:23:29;;;;;;;14.35;6.50;;;10.90;43.00;;;;;;5066691;28;20111;-74
2023/02/16 09:25:55;;;;;;;11.32;6.07;;;11.10;42.40;;;;;;5067012;28;20465;-74
2023/02/16 09:28:20;;;;;;;11.80;5.88;;;11.20;41.30;;;;;;5065191;28;20134;-74
2023/02/16 09:30:46;;;;;;;15.80;6.50;;;11.40;41.00;;;;;;5065734;28;20386;-73
2023/02/16 09:33:12;;;;;;;12.98;5.65;;;11.50;40.40;;;;;;5064675;28;20405;-73
2023/02/16 09:35:38;;;;;;;17.45;6.75;;;11.80;39.80;;;;;;5065143;28;20092;-74
2023/02/16 09:38:04;;;;;;;11.70;6.25;;;11.90;38.40;;;;;;5065012;28;20020;-79
2023/02/16 09:40:30;;;;;;;9.15;4.55;;;12.10;37.70;;;;;;5052929;28;20567;-79
2023/02/16 09:43:12;;;;;;;8.75;4.47;;;12.30;37.10;;;;;;5066718;28;20044;-79
2023/02/16 09:45:44;;;;;;;11.25;5.13;;;12.50;36.40;;;;;;5064853;28;20106;-78
2023/02/16 09:48:22;;;;;;;9.93;4.38;;;12.70;34.80;;;;;;5053197;28;20051;-76
2023/02/16 09:50:51;;;;;;;9.52;4.97;;;12.80;33.20;;;;;;5067503;28;20505;-76
2023/02/16 09:53:29;;;;;;;8.52;4.28;;;12.90;33.00;;;;;;5065614;28;20147;-73
2023/02/16 09:56:13;;;;;;;8.40;3.58;;;13.10;33.20;;;;;;5065327;28;20044;-76
2023/02/16 09:58:47;;;;;;;6.47;3.42;;;13.10;31.20;;;;;;5062141;28;20060;-72
2023/02/16 10:01:23;;;;;;;7.85;3.65;;;13.10;30.20;;;;;;5062119;28;20095;-75
2023/02/16 10:04:04;;;;;;;7.28;3.38;;;13.10;30.10;;;;;;5050637;28;20077;-74
2023/02/16 10:06:54;;;;;;;11.13;3.65;;;13.20;29.70;;;;;;5070786;28;20056;-79
2023/02/16 10:09:21;;;;;;;8.90;3.30;;;13.30;29.60;;;;;;5069095;28;20073;-77
2023/02/16 10:12:12;;;;;;;6.03;2.95;;;13.40;30.30;;;;;;5070838;28;20013;-74
2023/02/16 10:14:49;;;;;;;10.95;3.67;;;13.40;29.10;;;;;;5064329;28;20040;-75
2023/02/16 10:17:14;;;;;;;11.55;3.42;;;13.30;29.60;;;;;;5068095;28;20103;-74
2023/02/16 10:20:00;;;;;;;6.40;3.80;;;13.50;30.00;;;;;;5046904;28;20561;-74
2023/02/16 10:22:31;;;;;;;;;;;13.60;29.40;;;;;;5069835;28;20060;-75
2023/02/16 10:25:08;;;;;;;4.57;2.92;;;13.60;29.30;;;;;;5050044;28;20457;-74
2023/02/16 10:27:38;;;;;;;7.95;4.07;;;13.60;28.60;;;;;;5050342;28;20063;-74
2023/02/16 10:30:15;;;;;;;6.93;3.72;;;13.60;29.30;;;;;;5052226;28;20386;-76
2023/02/16 10:32:57;;;;;;;10.68;3.75;;;13.90;28.20;;;;;;5068476;28;20055;-74
2023/02/16 10:35:41;;;;;;;8.73;3.38;;;13.90;28.00;;;;;;5062434;28;20099;-75
2023/02/16 10:38:21;;;;;;;7.13;3.35;;;14.20;26.00;;;;;;5063990;28;20044;-74
2023/02/16 10:41:30;;;;;;;6.82;2.97;;;14.40;25.30;;;;;;5063341;28;20048;-75
2023/02/16 10:44:21;;;;;;;4.82;3.10;;;14.50;24.50;;;;;;5063503;28;20040;-74
2023/02/16 10:47:00;;;;;;;7.20;3.33;;;14.60;22.20;;;;;;5051114;28;20033;-74
2023/02/16 10:49:28;;;;;;;5.75;3.20;;;14.70;23.00;;;;;;5062644;28;20074;-73
2023/02/16 10:51:55;;;;;;;5.88;3.65;;;14.40;23.20;;;;;;5057053;28;20065;-72
2023/02/16 10:54:29;;;;;;;8.50;3.45;;;14.30;22.60;;;;;;5065648;28;20330;-73
2023/02/16 10:56:59;;;;;;;5.10;2.97;;;14.40;23.30;;;;;;5064436;28;20488;-75
2023/02/16 10:59:33;;;;;;;4.30;2.80;;;14.60;22.80;;;;;;5039559;28;20512;-73
2023/02/16 11:02:02;;;;;;;5.75;3.10;;;14.90;21.90;;;;;;5065503;28;20457;-74
2023/02/16 11:04:41;;;;;;;3.92;2.70;;;15.20;22.00;;;;;;5063112;28;20157;-73
2023/02/16 11:07:18;;;;;;;8.45;3.08;;;15.40;21.70;;;;;;5064107;28;20166;-73
2023/02/16 11:09:46;;;;;;;7.63;3.10;;;15.60;21.70;;;;;;5062764;28;20048;-73
2023/02/16 11:12:35;;;;;;;7.30;3.15;;;15.60;21.20;;;;;;5064184;28;20481;-73
2023/02/16 11:15:15;;;;;;;3.80;2.20;;;15.90;22.10;;;;;;5063748;28;20421;-73
2023/02/16 11:17:58;;;;;;;7.90;3.00;;;16.00;22.80;;;;;;5063901;28;20419;-74
2023/02/16 11:20:52;;;;;;;5.05;2.83;;;16.00;21.50;;;;;;5069301;28;20428;-74
2023/02/16 11:23:30;;;;;;;3.35;2.22;;;16.20;22.00;;;;;;5061248;28;20066;-74
2023/02/16 11:26:01;;;;;;;4.35;2.55;;;16.30;19.90;;;;;;5065035;28;20024;-74
2023/02/16 11:28:31;;;;;;;6.05;2.80;;;16.40;20.30;;;;;;5069325;28;20021;-74
2023/02/16 11:31:08;;;;;;;5.22;2.30;;;16.70;19.90;;;;;;5075006;28;20071;-75
2023/02/16 11:33:36;;;;;;;8.40;3.15;;;16.70;19.60;;;;;;5075129;28;20017;-75
2023/02/16 11:36:16;;;;;;;5.05;3.05;;;16.80;19.30;;;;;;5074995;28;20038;-74
2023/02/16 11:38:56;;;;;;;9.38;2.60;;;16.90;19.40;;;;;;5068426;28;20020;-75
2023/02/16 11:41:24;;;;;;;7.50;2.75;;;17.10;18.80;;;;;;5071984;28;20060;-74
2023/02/16 11:43:51;;;;;;;5.28;2.83;;;17.30;18.80;;;;;;5053153;28;20071;-74
2023/02/16 11:46:19;;;;;;;4.68;2.97;;;17.30;18.40;;;;;;5073316;28;20024;-74
2023/02/16 11:48:45;;;;;;;5.10;2.42;;;17.30;17.80;;;;;;5072953;28;20032;-74
2023/02/16 11:51:14;;;;;;;4.32;2.35;;;17.30;18.10;;;;;;5073708;28;20028;-75
2023/02/16 11:53:42;;;;;;;4.78;2.92;;;17.10;18.60;;;;;;5074191;28;20104;-75
2023/02/16 11:56:20;;;;;;;6.10;2.78;;;17.20;18.70;;;;;;5073207;28;20025;-72
2023/02/16 11:59:20;;;;;;;4.65;2.50;;;17.00;19.20;;;;;;5074532;28;20100;-74
2023/02/16 12:02:11;;;;;;;5.68;2.75;;;16.80;19.50;;;;;;5055439;28;20398;-73
2023/02/16 12:05:09;;;;;;;3.65;2.72;;;16.80;21.00;;;;;;5074273;28;20086;-76
2023/02/16 12:07:57;;;;;;;4.97;2.53;;;17.10;19.70;;;;;;5074757;28;20031;-74
2023/02/16 12:10:33;;;;;;;6.45;3.03;;;17.20;19.30;;;;;;5074625;28;20524;-74
2023/02/16 12:13:05;;;;;;;7.60;2.70;;;17.20;19.50;;;;;;5074334;28;20159;-75
2023/02/16 12:15:53;;;;;;;3.47;2.50;;;16.80;20.40;;;;;;5074466;28;20024;-76
2023/02/16 12:18:28;;;;;;;7.32;2.78;;;16.70;21.10;;;;;;5074711;28;20381;-76
2023/02/16 12:21:12;;;;;;;7.63;2.90;;;16.80;20.50;;;;;;5074660;28;20496;-75
2023/02/16 12:23:58;;;;;;;8.40;3.35;;;16.70;21.20;;;;;;5074441;28;20355;-75
2023/02/16 12:26:58;;;;;;;7.45;3.33;;;16.60;21.70;;;;;;5074834;28;20028;-76
2023/02/16 12:29:43;;;;;;;5.88;3.05;;;16.70;22.00;;;;;;5040158;28;20042;-81
2023/02/16 12:32:29;;;;;;;7.00;3.20;;;17.00;21.60;;;;;;5076637;28;20020;-75
2023/02/16 12:34:57;;;;;;;6.15;2.63;;;16.90;21.50;;;;;;5073893;28;20024;-77
2023/02/16 12:37:36;;;;;;;6.38;3.25;;;16.50;22.90;;;;;;5073737;28;20408;-77
2023/02/16 12:40:28;;;;;;;5.32;3.40;;;16.80;23.10;;;;;;5074405;28;20029;-76
2023/02/16 12:43:15;;;;;;;8.57;2.88;;;16.80;22.50;;;;;;5074448;28;20027;-76
2023/02/16 12:45:43;;;;;;;8.77;3.30;;;16.90;22.40;;;;;;5074556;28;20028;-77
2023/02/16 12:48:30;;;;;;;7.68;3.47;;;17.30;22.00;;;;;;5073969;28;20020;-78
2023/02/16 12:50:57;;;;;;;9.82;3.53;;;17.70;21.30;;;;;;5074213;28;20016;-77
2023/02/16 12:53:29;;;;;;;13.70;2.90;;;17.60;21.30;;;;;;5074500;28;20110;-77
2023/02/16 12:56:00;;;;;;;8.57;3.92;;;17.50;21.90;;;;;;5074018;28;20158;-79
2023/02/16 12:58:34;;;;;;;4.32;2.90;;;18.20;21.20;;;;;;5055915;28;20021;-77
2023/02/16 13:01:14;;;;;;;7.78;3.10;;;18.70;20.20;;;;;;5073823;28;20036;-75
2023/02/16 13:03:49;;;;;;;19.52;4.22;;;18.70;20.00;;;;;;5055516;28;20115;-75
2023/02/16 13:06:29;;;;;;;8.95;3.60;;;18.60;20.20;;;;;;5073632;28;20072;-75
2023/02/16 13:09:03;;;;;;;6.00;3.67;;;18.30;20.70;;;;;;5073550;28;20531;-75
2023/02/16 13:11:47;;;;;;;8.10;3.50;;;17.70;21.70;;;;;;5073497;28;20074;-75
2023/02/16 13:14:20;;;;;;;7.22;3.40;;;17.00;23.10;;;;;;5073450;28;20031;-75
2023/02/16 13:16:52;;;;;;;4.32;3.35;;;16.70;23.90;;;;;;5073407;28;20354;-75
2023/02/16 13:19:18;;;;;;;7.72;3.58;;;16.60;24.70;;;;;;5073411;28;20031;-77
2023/02/16 13:21:52;;;;;;;9.60;3.17;;;16.60;25.70;;;;;;5073408;28;20029;-76
2023/02/16 13:24:20;;;;;;;6.80;3.78;;;16.40;25.00;;;;;;5073493;28;20417;-76
2023/02/16 13:27:03;;;;;;;4.18;3.00;;;16.10;26.00;;;;;;5073437;28;20107;-75
2023/02/16 13:29:51;;;;;;;5.80;2.90;;;16.00;27.30;;;;;;5073148;28;20048;-75
2023/02/16 13:32:32;;;;;;;6.65;3.35;;;15.90;27.40;;;;;;5073291;28;20013;-77
2023/02/16 13:35:24;;;;;;;5.82;3.30;;;15.70;28.00;;;;;;5073269;28;20381;-75
2023/02/16 13:38:08;;;;;;;10.88;3.33;;;15.50;28.30;;;;;;5055603;28;20013;-76
2023/02/16 13:40:38;;;;;;;8.07;3.20;;;15.50;28.30;;;;;;5073725;28;20032;-77
2023/02/16 13:43:16;;;;;;;9.95;4.75;;;15.50;28.90;;;;;;5055141;28;20362;-76
2023/02/16 13:45:44;;;;;;;5.55;3.05;;;15.70;28.00;;;;;;5072731;28;20028;-77
2023/02/16 13:48:37;;;;;;;6.20;3.20;;;15.90;27.60;;;;;;5072908;28;20024;-74
2023/02/16 13:51:10;;;;;;;5.00;3.20;;;16.80;26.80;;;;;;5049776;28;20073;-75